createdAt,value
2019-02-24T00:02:18.197Z,103445.53
2019-02-24T00:04:51.135Z,103456.05
2019-02-24T00:07:21.707Z,103459.66
2019-02-24T00:09:52.165Z,103465.03
2019-02-24T00:12:22.815Z,103471.50
2019-02-24T00:14:55.167Z,103465.98
2019-02-24T00:17:33.945Z,103463.57
2019-02-24T00:20:02.781Z,103460.07
2019-02-24T00:22:33.431Z,103463.22
2019-02-24T00:25:07.071Z,103459.88
2019-02-24T00:27:41.146Z,103460.30
2019-02-24T00:30:11.447Z,103458.44
2019-02-24T00:32:41.997Z,103458.44
2019-02-24T00:35:15.378Z,103461.14
2019-02-24T00:37:45.910Z,103460.55
2019-02-24T00:40:18.002Z,103460.23
2019-02-24T00:42:48.659Z,103463.22
2019-02-24T00:45:19.045Z,103459.48
2019-02-24T00:47:52.320Z,103459.96
2019-02-24T00:50:22.580Z,103456.22
2019-02-24T00:52:53.914Z,103451.75
2019-02-24T00:55:24.223Z,103450.98
2019-02-24T00:57:54.885Z,103451.38
2019-02-24T01:00:25.451Z,103442.38
2019-02-24T01:02:57.420Z,103435.72
2019-02-24T01:05:27.793Z,103429.28
2019-02-24T01:07:58.090Z,103428.86
2019-02-24T01:10:32.916Z,103433.64
2019-02-24T01:13:03.196Z,103426.08
2019-02-24T01:15:33.835Z,103432.87
2019-02-24T01:18:05.366Z,103423.13
2019-02-24T01:20:35.647Z,103423.73
2019-02-24T01:23:05.971Z,103422.84
2019-02-24T01:25:36.273Z,103417.52
2019-02-24T01:28:06.591Z,103422.89
2019-02-24T01:30:39.310Z,103417.63
2019-02-24T01:33:09.666Z,103421.38
2019-02-24T01:35:40.227Z,103420.80
2019-02-24T01:38:10.806Z,103417.70
2019-02-24T01:40:44.588Z,103424.26
2019-02-24T01:43:15.193Z,103419.05
2019-02-24T01:45:48.275Z,103421.89
2019-02-24T01:48:22.318Z,103420.52
2019-02-24T01:50:52.782Z,103420.08
2019-02-24T01:53:24.744Z,103415.67
2019-02-24T01:55:57.997Z,103414.56
2019-02-24T01:58:34.858Z,103414.09
2019-02-24T02:01:00.556Z,103405.86
2019-02-24T02:03:30.944Z,103411.70
2019-02-24T02:06:02.264Z,103414.39
2019-02-24T02:08:32.606Z,103411.86
2019-02-24T02:11:10.963Z,103410.77
2019-02-24T02:13:39.807Z,103411.44
2019-02-24T02:16:12.060Z,103402.25
2019-02-24T02:18:42.365Z,103400.20
2019-02-24T02:21:12.979Z,103395.31
2019-02-24T02:23:44.955Z,103395.31
2019-02-24T02:26:15.527Z,103392.78
2019-02-24T02:28:46.001Z,103397.55
2019-02-24T02:31:17.819Z,103397.92
2019-02-24T02:33:48.143Z,103394.72
2019-02-24T02:36:18.427Z,103396.65
2019-02-24T02:38:49.938Z,103394.78
2019-02-24T02:41:21.969Z,103398.59
2019-02-24T02:43:52.292Z,103401.81
2019-02-24T02:46:26.970Z,103401.89
2019-02-24T02:48:58.379Z,103408.16
2019-02-24T02:51:31.604Z,103409.70
2019-02-24T02:54:04.856Z,103405.47
2019-02-24T02:56:38.947Z,103412.49
2019-02-24T02:59:09.478Z,103408.09
2019-02-24T03:01:43.145Z,103402.87
2019-02-24T03:04:16.450Z,103406.16
2019-02-24T03:07:01.524Z,103403.61
2019-02-24T03:09:31.914Z,103405.02
2019-02-24T03:12:04.135Z,103408.16
2019-02-24T03:14:34.541Z,103408.16
2019-02-24T03:17:05.070Z,103409.00
2019-02-24T03:19:36.560Z,103410.97
2019-02-24T03:22:06.870Z,103405.18
2019-02-24T03:24:37.158Z,103407.37
2019-02-24T03:27:08.058Z,103403.75
2019-02-24T03:29:38.337Z,103404.41
2019-02-24T03:32:09.957Z,103405.48
2019-02-24T03:34:40.292Z,103396.72
2019-02-24T03:37:12.180Z,103400.38
2019-02-24T03:39:42.492Z,103403.06
2019-02-24T03:42:16.126Z,103404.10
2019-02-24T03:44:47.758Z,103408.25
2019-02-24T03:47:18.081Z,103410.48
2019-02-24T03:49:48.600Z,103412.48
2019-02-24T03:52:18.873Z,103410.32
2019-02-24T03:54:50.942Z,103416.76
2019-02-24T03:57:22.336Z,103412.78
2019-02-24T03:59:52.730Z,103412.28
2019-02-24T04:02:23.278Z,103415.44
2019-02-24T04:04:55.170Z,103414.36
2019-02-24T04:07:25.446Z,103414.59
2019-02-24T04:10:06.250Z,103419.84
2019-02-24T04:12:40.545Z,103420.41
2019-02-24T04:15:10.816Z,103421.55
2019-02-24T04:17:41.140Z,103426.61
2019-02-24T04:20:11.720Z,103428.28
2019-02-24T04:22:42.014Z,103432.85
2019-02-24T04:25:12.647Z,103433.86
2019-02-24T04:27:42.948Z,103437.13
2019-02-24T04:30:13.389Z,103430.98
2019-02-24T04:32:43.714Z,103431.91
2019-02-24T04:35:14.567Z,103433.18
2019-02-24T04:37:45.189Z,103434.97
2019-02-24T04:40:19.223Z,103432.38
2019-02-24T04:42:49.596Z,103425.73
2019-02-24T04:45:20.200Z,103429.28
2019-02-24T04:47:50.558Z,103427.70
2019-02-24T04:50:21.124Z,103429.13
2019-02-24T04:52:52.633Z,103429.78
2019-02-24T04:55:23.219Z,103434.59
2019-02-24T04:57:53.548Z,103433.86
2019-02-24T05:00:25.933Z,103440.14
2019-02-24T05:02:56.398Z,103445.92
2019-02-24T05:05:27.034Z,103448.53
2019-02-24T05:07:57.575Z,103447.20
2019-02-24T05:10:29.474Z,103462.50
2019-02-24T05:13:01.631Z,103451.92
2019-02-24T05:15:32.209Z,103448.66
2019-02-24T05:18:03.720Z,103444.77
2019-02-24T05:20:35.551Z,103443.54
2019-02-24T05:23:05.896Z,103440.83
2019-02-24T05:25:36.459Z,103448.33
2019-02-24T05:28:07.062Z,103446.42
2019-02-24T05:30:38.659Z,103443.31
2019-02-24T05:33:09.009Z,103434.01
2019-02-24T05:35:40.647Z,103434.01
2019-02-24T05:38:11.181Z,103443.77
2019-02-24T05:40:44.342Z,103445.98
2019-02-24T05:43:14.898Z,103445.68
2019-02-24T05:45:45.218Z,103432.92
2019-02-24T05:48:17.322Z,103422.12
2019-02-24T05:50:47.604Z,103421.20
2019-02-24T05:53:18.226Z,103421.26
2019-02-24T05:55:48.502Z,103417.64
2019-02-24T05:58:22.919Z,103420.08
2019-02-24T06:00:53.352Z,103420.22
2019-02-24T06:03:23.897Z,103426.67
2019-02-24T06:05:56.530Z,103422.28
2019-02-24T06:08:26.818Z,103423.95
2019-02-24T06:10:59.238Z,103421.09
2019-02-24T06:13:31.128Z,103426.37
2019-02-24T06:16:01.474Z,103421.33
2019-02-24T06:18:32.356Z,103416.37
2019-02-24T06:21:04.362Z,103419.80
2019-02-24T06:23:36.369Z,103420.27
2019-02-24T06:26:06.919Z,103414.14
2019-02-24T06:28:40.404Z,103421.75
2019-02-24T06:31:10.782Z,103423.64
2019-02-24T06:33:42.844Z,103419.30
2019-02-24T06:36:13.161Z,103421.88
2019-02-24T06:38:44.203Z,103423.00
2019-02-24T06:41:14.867Z,103429.83
2019-02-24T06:43:48.262Z,103441.03
2019-02-24T06:46:20.067Z,103445.33
2019-02-24T06:48:54.193Z,103456.86
2019-02-24T06:51:24.491Z,103448.69
2019-02-24T06:53:57.288Z,103448.83
2019-02-24T06:56:27.750Z,103449.07
2019-02-24T06:58:58.902Z,103433.36
2019-02-24T07:01:29.225Z,103427.00
2019-02-24T07:04:02.053Z,103422.17
2019-02-24T07:06:33.660Z,103423.80
2019-02-24T07:09:07.245Z,103419.00
2019-02-24T07:11:40.331Z,103421.86
2019-02-24T07:14:12.554Z,103417.11
2019-02-24T07:16:42.877Z,103405.47
2019-02-24T07:19:13.340Z,103405.30
2019-02-24T07:21:44.887Z,103399.17
2019-02-24T07:24:15.247Z,103399.17
2019-02-24T07:26:45.554Z,103410.96
2019-02-24T07:29:15.894Z,103406.77
2019-02-24T07:31:46.497Z,103416.36
2019-02-24T07:34:18.099Z,103422.98
2019-02-24T07:36:48.735Z,103432.78
2019-02-24T07:39:19.159Z,103443.31
2019-02-24T07:41:52.129Z,103449.87
2019-02-24T07:44:22.475Z,103461.97
2019-02-24T07:46:55.815Z,103465.47
2019-02-24T07:49:32.142Z,103466.11
2019-02-24T07:52:02.802Z,103456.98
2019-02-24T07:54:33.098Z,103457.69
2019-02-24T07:57:03.631Z,103456.02
2019-02-24T07:59:35.074Z,103457.05
2019-02-24T08:02:05.689Z,103462.30
2019-02-24T08:04:36.043Z,103465.08
2019-02-24T08:07:09.091Z,103474.16
2019-02-24T08:09:39.666Z,103477.58
2019-02-24T08:12:13.755Z,103480.44
2019-02-24T08:14:46.430Z,103491.31
2019-02-24T08:17:16.804Z,103490.99
2019-02-24T08:19:48.609Z,103489.03
2019-02-24T08:22:20.965Z,103476.78
2019-02-24T08:24:51.200Z,103456.09
2019-02-24T08:27:27.487Z,103435.67
2019-02-24T08:30:02.537Z,103431.12
2019-02-24T08:32:32.963Z,103443.27
2019-02-24T08:35:03.373Z,103463.19
2019-02-24T08:37:33.839Z,103452.23
2019-02-24T08:40:04.466Z,103456.77
2019-02-24T08:42:38.143Z,103460.09
2019-02-24T08:45:08.676Z,103459.16
2019-02-24T08:47:42.069Z,103450.45
2019-02-24T08:50:13.746Z,103452.73
2019-02-24T08:52:52.418Z,103451.75
2019-02-24T08:55:19.611Z,103466.28
2019-02-24T08:57:56.983Z,103457.23
2019-02-24T09:00:29.028Z,103468.63
2019-02-24T09:03:01.086Z,103471.28
2019-02-24T09:05:31.958Z,103475.61
2019-02-24T09:08:02.490Z,103466.53
2019-02-24T09:10:33.124Z,103465.24
2019-02-24T09:13:03.549Z,103453.86
2019-02-24T09:15:35.474Z,103451.28
2019-02-24T09:18:06.006Z,103445.98
2019-02-24T09:20:38.646Z,103450.19
2019-02-24T09:24:06.246Z,103453.84
2019-02-24T09:27:07.427Z,103449.35
2019-02-24T09:30:18.746Z,103445.01
2019-02-24T09:33:53.141Z,103441.02
2019-02-24T09:36:20.898Z,103436.91
2019-02-24T09:38:51.902Z,103441.89
2019-02-24T09:41:25.284Z,103439.64
2019-02-24T09:44:01.914Z,103440.78
2019-02-24T09:46:36.335Z,103436.82
2019-02-24T09:49:06.921Z,103443.69
2019-02-24T09:51:38.961Z,103443.69
2019-02-24T09:54:09.686Z,103438.67
2019-02-24T09:56:48.926Z,103426.95
2019-02-24T09:59:21.191Z,103438.34
2019-02-24T10:01:53.583Z,103438.34
2019-02-24T10:04:24.545Z,103444.49
2019-02-24T10:06:54.943Z,103438.61
2019-02-24T10:09:27.135Z,103443.05
2019-02-24T10:11:58.638Z,103448.98
2019-02-24T10:14:34.412Z,103445.94
2019-02-24T10:17:07.156Z,103438.20
2019-02-24T10:19:37.495Z,103444.25
2019-02-24T10:22:07.853Z,103446.45
2019-02-24T10:24:38.482Z,103452.69
2019-02-24T10:27:11.146Z,103439.02
2019-02-24T10:29:43.561Z,103439.45
2019-02-24T10:32:14.233Z,103435.24
2019-02-24T10:34:47.805Z,103443.83
2019-02-24T10:37:18.028Z,103428.48
2019-02-24T10:39:52.272Z,103432.61
2019-02-24T10:42:22.390Z,103432.61
2019-02-24T10:44:55.292Z,103432.54
2019-02-24T10:47:27.645Z,103429.04
2019-02-24T10:50:01.859Z,103442.60
2019-02-24T10:52:33.244Z,103449.42
2019-02-24T10:55:04.216Z,103470.44
2019-02-24T10:57:36.016Z,103478.27
2019-02-24T11:00:11.174Z,103479.63
2019-02-24T11:02:41.520Z,103486.08
2019-02-24T11:05:19.717Z,103485.59
2019-02-24T11:07:50.116Z,103492.25
2019-02-24T11:10:20.779Z,103487.13
2019-02-24T11:12:51.180Z,103487.16
2019-02-24T11:15:21.763Z,103489.00
2019-02-24T11:17:52.151Z,103495.92
2019-02-24T11:20:26.904Z,103491.68
2019-02-24T11:22:57.519Z,103494.14
2019-02-24T11:25:27.926Z,103498.34
2019-02-24T11:28:00.463Z,103500.66
2019-02-24T11:30:31.029Z,103493.12
2019-02-24T11:33:01.822Z,103495.11
2019-02-24T11:35:32.543Z,103496.35
2019-02-24T11:38:08.559Z,103487.63
2019-02-24T11:40:40.918Z,103483.84
2019-02-24T11:43:11.266Z,103477.69
2019-02-24T11:45:41.646Z,103483.50
2019-02-24T11:48:14.287Z,103484.05
2019-02-24T11:50:48.666Z,103486.50
2019-02-24T11:53:20.161Z,103481.23
2019-02-24T11:55:52.414Z,103475.76
2019-02-24T11:58:25.484Z,103471.43
2019-02-24T12:00:58.782Z,103475.66
2019-02-24T12:03:29.736Z,103470.79
2019-02-24T12:06:00.270Z,103470.07
2019-02-24T12:08:39.177Z,103470.25
2019-02-24T12:11:05.047Z,103461.08
2019-02-24T12:13:38.622Z,103455.52
2019-02-24T12:16:13.937Z,103463.83
2019-02-24T12:18:46.040Z,103464.30
2019-02-24T12:21:23.522Z,103463.19
2019-02-24T12:23:57.144Z,103465.33
2019-02-24T12:26:29.493Z,103464.86
2019-02-24T12:29:01.630Z,103463.38
2019-02-24T12:31:33.809Z,103457.61
2019-02-24T12:34:06.028Z,103454.30
2019-02-24T12:36:39.655Z,103445.11
2019-02-24T12:39:13.478Z,103444.66
2019-02-24T12:41:44.077Z,103435.87
2019-02-24T12:44:15.648Z,103428.86
2019-02-24T12:46:49.467Z,103432.11
2019-02-24T12:49:20.457Z,103429.20
2019-02-24T12:51:50.801Z,103429.20
2019-02-24T12:54:21.325Z,103428.24
2019-02-24T12:56:51.976Z,103427.13
2019-02-24T12:59:24.844Z,103432.35
2019-02-24T13:01:55.651Z,103425.33
2019-02-24T13:04:28.889Z,103420.83
2019-02-24T13:06:59.710Z,103418.25
2019-02-24T13:09:31.530Z,103409.53
2019-02-24T13:12:02.941Z,103400.25
2019-02-24T13:14:33.534Z,103400.25
2019-02-24T13:17:07.876Z,103412.67
2019-02-24T13:19:39.619Z,103412.09
2019-02-24T13:22:10.273Z,103412.42
2019-02-24T13:24:41.099Z,103410.66
2019-02-24T13:27:11.617Z,103406.90
2019-02-24T13:29:45.643Z,103402.72
2019-02-24T13:32:16.648Z,103406.27
2019-02-24T13:34:51.193Z,103409.00
2019-02-24T13:37:24.330Z,103409.56
2019-02-24T13:39:58.822Z,103401.20
2019-02-24T13:42:29.078Z,103388.89
2019-02-24T13:44:59.576Z,103385.66
2019-02-24T13:47:31.302Z,103376.36
2019-02-24T13:50:03.247Z,103372.64
2019-02-24T13:52:34.159Z,103370.17
2019-02-24T13:55:05.080Z,103365.58
2019-02-24T13:57:35.648Z,103365.58
2019-02-24T14:00:08.823Z,103375.34
2019-02-24T14:02:39.420Z,103371.12
2019-02-24T14:05:11.818Z,103369.48
2019-02-24T14:07:43.359Z,103369.43
2019-02-24T14:10:15.905Z,103372.32
2019-02-24T14:12:46.411Z,103378.48
2019-02-24T14:15:18.535Z,103373.61
2019-02-24T14:17:56.729Z,103376.14
2019-02-24T14:20:27.046Z,103365.30
2019-02-24T14:22:57.552Z,103369.03
2019-02-24T14:25:27.988Z,103365.80
2019-02-24T14:27:58.826Z,103366.75
2019-02-24T14:30:29.182Z,103368.05
2019-02-24T14:32:59.897Z,103364.66
2019-02-24T14:35:31.196Z,103361.02
2019-02-24T14:38:04.214Z,103364.50
2019-02-24T14:40:41.330Z,103363.61
2019-02-24T14:43:11.918Z,103365.98
2019-02-24T14:45:49.470Z,103364.69
2019-02-24T14:48:18.331Z,103361.21
2019-02-24T14:50:50.438Z,103363.98
2019-02-24T14:53:20.777Z,103361.30
2019-02-24T14:55:51.489Z,103366.88
2019-02-24T14:58:21.827Z,103361.98
2019-02-24T15:00:52.477Z,103369.25
2019-02-24T15:03:28.191Z,103374.02
2019-02-24T15:05:58.554Z,103376.85
2019-02-24T15:08:29.052Z,103377.96
2019-02-24T15:11:20.763Z,103380.55
2019-02-24T15:13:38.231Z,103382.02
2019-02-24T15:16:08.971Z,103393.66
2019-02-24T15:18:43.582Z,103387.04
2019-02-24T15:21:14.507Z,103384.20
2019-02-24T15:23:51.304Z,103385.91
2019-02-24T15:26:22.044Z,103384.64
2019-02-24T15:28:52.714Z,103386.97
2019-02-24T15:31:23.017Z,103376.88
2019-02-24T15:33:53.635Z,103370.77
2019-02-24T15:36:25.585Z,103368.98
2019-02-24T15:38:56.027Z,103371.11
2019-02-24T15:41:29.734Z,103370.67
2019-02-24T15:44:00.673Z,103374.50
2019-02-24T15:46:54.817Z,103369.33
2019-02-24T15:49:15.588Z,103379.83
2019-02-24T15:51:45.987Z,103381.12
2019-02-24T15:54:44.706Z,103377.55
2019-02-24T15:56:55.229Z,103379.47
2019-02-24T15:59:25.723Z,103378.61
2019-02-24T16:02:00.854Z,103381.71
2019-02-24T16:04:32.822Z,103376.20
2019-02-24T16:07:03.286Z,103373.57
2019-02-24T16:09:34.029Z,103369.86
2019-02-24T16:12:04.399Z,103370.82
2019-02-24T16:14:35.109Z,103370.06
2019-02-24T16:17:11.584Z,103372.09
2019-02-24T16:19:46.949Z,103371.89
2019-02-24T16:22:19.256Z,103364.55
2019-02-24T16:24:54.349Z,103364.55
2019-02-24T16:27:27.068Z,103379.59
2019-02-24T16:30:00.015Z,103383.78
2019-02-24T16:32:34.488Z,103381.98
2019-02-24T16:35:06.708Z,103385.73
2019-02-24T16:37:40.452Z,103387.12
2019-02-24T16:40:13.898Z,103379.39
2019-02-24T16:42:48.307Z,103386.49
2019-02-24T16:45:18.684Z,103387.06
2019-02-24T16:48:00.692Z,103386.70
2019-02-24T16:50:25.949Z,103386.59
2019-02-24T16:52:59.616Z,103377.14
2019-02-24T16:55:32.595Z,103392.36
2019-02-24T16:58:05.914Z,103392.59
2019-02-24T17:00:36.278Z,103393.89
2019-02-24T17:03:09.309Z,103384.77
2019-02-24T17:05:43.758Z,103386.56
2019-02-24T17:08:18.418Z,103388.79
2019-02-24T17:10:49.215Z,103394.33
2019-02-24T17:13:20.141Z,103392.29
2019-02-24T17:15:56.546Z,103386.25
2019-02-24T17:18:29.896Z,103391.59
2019-02-24T17:21:04.691Z,103399.89
2019-02-24T17:23:34.707Z,103409.38
2019-02-24T17:26:05.297Z,103402.59
2019-02-24T17:28:36.992Z,103406.22
2019-02-24T17:31:09.000Z,103407.42
2019-02-24T17:33:39.612Z,103406.49
2019-02-24T17:36:11.880Z,103407.75
2019-02-24T17:38:44.418Z,103407.32
2019-02-24T17:41:14.755Z,103411.22
2019-02-24T17:43:55.654Z,103402.50
2019-02-24T17:46:39.195Z,103403.05
2019-02-24T17:49:11.365Z,103402.19
2019-02-24T17:51:46.856Z,103407.27
2019-02-24T17:54:20.864Z,103408.99
2019-02-24T17:56:51.162Z,103404.19
2019-02-24T17:59:24.304Z,103414.55
2019-02-24T18:02:25.999Z,103412.80
2019-02-24T18:04:57.956Z,103404.75
2019-02-24T18:07:28.279Z,103396.31
2019-02-24T18:10:00.356Z,103393.94
2019-02-24T18:12:32.404Z,103391.41
2019-02-24T18:15:05.574Z,103397.27
2019-02-24T18:17:42.730Z,103399.47
2019-02-24T18:20:14.523Z,103397.20
2019-02-24T18:22:45.185Z,103403.47
2019-02-24T18:25:15.636Z,103403.33
2019-02-24T18:27:45.986Z,103394.86
2019-02-24T18:30:23.374Z,103397.16
2019-02-24T18:33:25.514Z,103403.38
2019-02-24T18:36:02.398Z,103399.80
2019-02-24T18:38:35.266Z,103397.23
2019-02-24T18:41:10.293Z,103393.26
2019-02-24T18:43:51.078Z,103394.95
2019-02-24T18:46:16.064Z,103398.77
2019-02-24T18:48:49.743Z,103387.91
2019-02-24T18:51:23.298Z,103385.72
2019-02-24T18:53:56.061Z,103387.81
2019-02-24T18:56:31.722Z,103388.84
2019-02-24T18:59:03.283Z,103385.64
2019-02-24T19:01:34.023Z,103388.72
2019-02-24T19:04:04.768Z,103394.19
2019-02-24T19:06:39.366Z,103401.75
2019-02-24T19:09:09.492Z,103401.92
2019-02-24T19:11:42.821Z,103415.21
2019-02-24T19:14:13.515Z,103418.70
2019-02-24T19:16:45.362Z,103430.62
2019-02-24T19:19:25.634Z,103431.58
2019-02-24T19:21:52.392Z,103431.58
2019-02-24T19:24:24.425Z,103437.06
2019-02-24T19:27:03.783Z,103439.55
2019-02-24T19:29:31.418Z,103443.87
2019-02-24T19:32:07.951Z,103444.91
2019-02-24T19:34:44.683Z,103444.76
2019-02-24T19:37:24.149Z,103451.73
2019-02-24T19:39:54.649Z,103447.17
2019-02-24T19:42:33.785Z,103442.86
2019-02-24T19:45:08.910Z,103452.73
2019-02-24T19:47:43.831Z,103454.15
2019-02-24T19:50:26.970Z,103457.09
2019-02-24T19:53:16.937Z,103459.53
2019-02-24T19:55:50.185Z,103462.90
2019-02-24T19:58:23.123Z,103458.97
2019-02-24T20:00:59.964Z,103463.82
2019-02-24T20:03:31.951Z,103456.94
2019-02-24T20:06:05.524Z,103464.48
2019-02-24T20:08:43.632Z,103459.36
2019-02-24T20:11:14.207Z,103461.64
2019-02-24T20:13:48.056Z,103466.02
2019-02-24T20:16:27.791Z,103465.16
2019-02-24T20:18:58.046Z,103468.09
2019-02-24T20:21:31.266Z,103467.72
2019-02-24T20:24:01.903Z,103466.55
2019-02-24T20:26:32.255Z,103459.14
2019-02-24T20:29:04.655Z,103453.28
2019-02-24T20:31:38.423Z,103448.70
2019-02-24T20:34:08.443Z,103445.91
2019-02-24T20:36:54.008Z,103440.29
2019-02-24T20:39:27.445Z,103441.82
2019-02-24T20:42:00.043Z,103436.72
2019-02-24T20:44:32.151Z,103437.98
2019-02-24T20:47:05.025Z,103439.78
2019-02-24T20:49:35.848Z,103442.05
2019-02-24T20:52:08.007Z,103439.87
2019-02-24T20:54:45.332Z,103441.53
2019-02-24T20:57:20.270Z,103447.29
2019-02-24T20:59:50.836Z,103451.62
2019-02-24T21:02:33.762Z,103448.81
2019-02-24T21:05:42.852Z,103448.17
2019-02-24T21:07:46.488Z,103447.41
2019-02-24T21:10:16.820Z,103447.05
2019-02-24T21:13:01.067Z,103451.02
2019-02-24T21:15:22.453Z,103450.77
2019-02-24T21:17:53.233Z,103460.73
2019-02-24T21:20:30.213Z,103458.67
2019-02-24T21:23:04.430Z,103457.37
2019-02-24T21:25:34.685Z,103458.92
2019-02-24T21:28:05.375Z,103462.88
2019-02-24T21:30:38.049Z,103468.09
2019-02-24T21:33:09.073Z,103472.40
2019-02-24T21:35:39.423Z,103478.52
2019-02-24T21:38:15.743Z,103475.21
2019-02-24T21:40:44.749Z,103469.73
2019-02-24T21:43:16.776Z,103472.02
2019-02-24T21:45:47.120Z,103472.66
2019-02-24T21:48:20.246Z,103472.88
2019-02-24T21:50:50.901Z,103478.98
2019-02-24T21:53:21.273Z,103481.78
2019-02-24T21:55:55.158Z,103478.33
2019-02-24T21:58:24.386Z,103475.09
2019-02-24T22:00:54.984Z,103476.90
2019-02-24T22:03:33.813Z,103475.09
2019-02-24T22:06:08.178Z,103479.34
2019-02-24T22:08:38.789Z,103477.64
2019-02-24T22:11:10.515Z,103480.72
2019-02-24T22:13:49.002Z,103479.19
2019-02-24T22:16:29.098Z,103478.44
2019-02-24T22:18:59.477Z,103478.73
2019-02-24T22:21:30.087Z,103480.58
2019-02-24T22:24:03.504Z,103482.44
2019-02-24T22:26:33.786Z,103487.26
2019-02-24T22:29:04.510Z,103497.39
2019-02-24T22:31:39.310Z,103503.85
2019-02-24T22:34:14.145Z,103502.11
2019-02-24T22:36:46.084Z,103505.72
2019-02-24T22:39:16.958Z,103504.61
2019-02-24T22:41:47.310Z,103506.86
2019-02-24T22:44:17.984Z,103510.41
2019-02-24T22:46:49.924Z,103507.55
2019-02-24T22:49:20.673Z,103505.96
2019-02-24T22:51:56.207Z,103497.41
2019-02-24T22:54:27.174Z,103500.55
2019-02-24T22:56:57.568Z,103504.50
2019-02-24T22:59:32.825Z,103508.36
2019-02-24T23:02:06.041Z,103504.30
2019-02-24T23:04:36.681Z,103496.76
2019-02-24T23:07:08.041Z,103502.78
2019-02-24T23:09:38.645Z,103495.64
2019-02-24T23:12:08.937Z,103487.48
2019-02-24T23:14:39.498Z,103491.55
2019-02-24T23:17:11.127Z,103492.73
2019-02-24T23:19:43.034Z,103491.29
2019-02-24T23:22:13.445Z,103493.67
2019-02-24T23:24:52.859Z,103495.92
2019-02-24T23:27:23.208Z,103496.41
2019-02-24T23:29:53.564Z,103498.66
2019-02-24T23:32:24.222Z,103501.14
2019-02-24T23:34:59.711Z,103505.64
2019-02-24T23:37:32.754Z,103508.55
2019-02-24T23:40:03.379Z,103506.14
2019-02-24T23:42:37.432Z,103502.80
2019-02-24T23:45:10.455Z,103511.17
2019-02-24T23:47:40.031Z,103508.20
2019-02-24T23:50:13.545Z,103513.95
2019-02-24T23:52:50.484Z,103517.25
2019-02-24T23:55:20.995Z,103520.77
2019-02-24T23:57:52.708Z,103519.31
